Chitose — JD2925 — position and weather

sailwx.info

Track history (hours):
 
Tides and Currents Weather Stations Pressure Air Temp Water Temp Dewpoint Dewpoint Depression Visibility Wind Speed Wind Dir Waves Ship Positions

Chitose

Last reported at 2017-Aug-17 07:11 UTC. Time now 2017-Aug-17 09:55 UTC.
Position N 35°27' E 139°40'.

Length 33 m; draft 3.8 m.

Type: Tug. MMSI: 431000953.

Date/timePositionNaut miles runAvg speedWind from/ knotsBaromVisibWave heightAir tempDewpointWater temp
2017-Aug-17 07:11N 35°27' E 139°40'0 0.0
2017-Aug-17 07:00N 35°27' E 139°40'0 0.0
2017-Aug-17 06:30N 35°27' E 139°40'0 0.0
2017-Aug-17 06:00N 35°27' E 139°40'0 0.0
2017-Aug-17 05:30N 35°27' E 139°40'0 0.0
2017-Aug-17 05:00N 35°27' E 139°40'0 0.0
2017-Aug-17 04:30N 35°27' E 139°40'0 0.0
2017-Aug-17 04:00N 35°27' E 139°40'0 0.5
2017-Aug-17 03:30N 35°27' E 139°40'1 2.7
2017-Aug-17 03:00N 35°26' E 139°41'0 0.3
2017-Aug-17 02:30N 35°26' E 139°41'1 1.9
2017-Aug-17 02:00N 35°26' E 139°42'0 0.0
2017-Aug-17 01:30N 35°26' E 139°42'0 0.0
2017-Aug-17 01:00N 35°26' E 139°42'0 0.0
2017-Aug-17 00:30N 35°26' E 139°42'0 0.1
2017-Aug-17 00:00N 35°26' E 139°42'0 0.1
2017-Aug-16 23:30N 35°26' E 139°42'0 0.0
2017-Aug-16 23:00N 35°26' E 139°42'0 0.7
2017-Aug-16 22:30N 35°26' E 139°41'1 1.0
2017-Aug-16 22:00N 35°25' E 139°42'0 0.5
2017-Aug-16 21:31N 35°26' E 139°42'2 4.5
2017-Aug-16 21:00N 35°27' E 139°40'0 0.0
2017-Aug-16 20:30N 35°27' E 139°40'0 0.0
2017-Aug-16 07:53N 35°27' E 139°40'0 0.0
2017-Aug-16 07:30N 35°27' E 139°40'1 2.7
2017-Aug-16 07:00N 35°27' E 139°41'3 6.2
2017-Aug-16 06:31N 35°24' E 139°40'0 0.5
2017-Aug-16 06:00N 35°24' E 139°41'1 1.6
2017-Aug-16 05:30N 35°24' E 139°40'0 0.0
2017-Aug-16 05:00N 35°24' E 139°40'0 0.0
2017-Aug-16 04:30N 35°24' E 139°40'0 0.0
2017-Aug-16 04:00N 35°24' E 139°40'0 0.3
2017-Aug-16 03:30N 35°24' E 139°40'1 2.6
2017-Aug-16 03:00N 35°24' E 139°38'0 0.1
2017-Aug-16 02:30N 35°24' E 139°38'0 1.0
2017-Aug-16 02:00N 35°24' E 139°39'3 6.4
2017-Aug-16 01:30N 35°22' E 139°42'0 1.0
2017-Aug-16 01:00N 35°22' E 139°41'4 8.6
2017-Aug-16 00:30N 35°27' E 139°41'1 2.7
2017-Aug-16 00:00N 35°27' E 139°40'0 0.0
2017-Aug-15 23:30N 35°27' E 139°40'0 0.0
2017-Aug-15 23:00N 35°27' E 139°40'0 0.0
2017-Aug-15 22:30N 35°27' E 139°40'0 0.0
2017-Aug-14 23:47N 35°27' E 139°40'0 0.0
2017-Aug-14 23:30N 35°27' E 139°40'4 8.0
2017-Aug-14 23:00N 35°28' E 139°44'2 4.7
2017-Aug-14 22:30N 35°29' E 139°47'0 0.0
2017-Aug-14 22:00N 35°29' E 139°47'2 4.4
2017-Aug-14 21:30N 35°28' E 139°44'3 5.0
2017-Aug-14 21:00N 35°28' E 139°41'0 0.1
2017-Aug-14 20:30N 35°28' E 139°41'1 1.7
2017-Aug-14 20:00N 35°28' E 139°41'1 1.1
2017-Aug-14 19:30N 35°28' E 139°41'0 0.0
2017-Aug-14 19:00N 35°28' E 139°41'0 0.0
2017-Aug-14 18:30N 35°28' E 139°41'0 0.0
2017-Aug-14 18:00N 35°28' E 139°41'0 0.0
2017-Aug-14 17:30N 35°28' E 139°41'0 0.0
2017-Aug-14 17:00N 35°28' E 139°41'0 0.0
2017-Aug-14 16:30N 35°28' E 139°41'0 0.0
2017-Aug-14 16:00N 35°28' E 139°41'0 0.0
2017-Aug-14 15:30N 35°28' E 139°41'0 0.0
2017-Aug-14 15:00N 35°28' E 139°41'0 0.0
2017-Aug-14 14:30N 35°28' E 139°41'0 0.0
2017-Aug-14 14:00N 35°28' E 139°41'1 2.7
2017-Aug-14 13:30N 35°26' E 139°41'1 1.0
2017-Aug-14 13:00N 35°27' E 139°41'1 1.6
2017-Aug-14 12:30N 35°27' E 139°42'0 0.5
2017-Aug-14 12:00N 35°27' E 139°42'0 0.0
2017-Aug-14 11:30N 35°27' E 139°42'0 0.0
2017-Aug-14 11:00N 35°27' E 139°42'1 2.8
2017-Aug-14 10:30N 35°26' E 139°40'1 2.3
2017-Aug-14 10:00N 35°28' E 139°40'1 1.9
2017-Aug-14 09:30N 35°27' E 139°41'0 0.8
2017-Aug-14 09:01N 35°26' E 139°41'2 3.1
2017-Aug-14 08:30N 35°26' E 139°43'1 2.8
2017-Aug-14 08:00N 35°27' E 139°41'1 2.9
2017-Aug-14 07:30N 35°27' E 139°40'0 0.0
2017-Aug-14 07:00N 35°27' E 139°40'0 0.0
2017-Aug-14 06:30N 35°27' E 139°40'0 0.0
2017-Aug-14 06:00N 35°27' E 139°40'0 0.0
2017-Aug-14 05:30N 35°27' E 139°40'0 0.0
2017-Aug-14 05:00N 35°27' E 139°40'0 0.0
2017-Aug-14 04:31N 35°27' E 139°40'0 0.0
2017-Aug-14 04:00N 35°27' E 139°40'0 0.0
2017-Aug-14 03:30N 35°27' E 139°40'0 0.0
2017-Aug-14 03:00N 35°27' E 139°40'0 0.0
2017-Aug-14 02:30N 35°27' E 139°40'0 0.0
2017-Aug-14 02:00N 35°27' E 139°40'0 0.0
2017-Aug-14 01:30N 35°27' E 139°40'0 0.0
2017-Aug-14 01:00N 35°27' E 139°40'0 0.0
2017-Aug-14 00:30N 35°27' E 139°40'0 0.0
2017-Aug-14 00:00N 35°27' E 139°40'0 0.0
2017-Aug-13 23:30N 35°27' E 139°40'0 0.0
2017-Aug-13 23:00N 35°27' E 139°40'0 0.0
2017-Aug-13 22:30N 35°27' E 139°40'0 0.0
2017-Aug-13 05:11N 35°27' E 139°40'1 3.1
2017-Aug-13 05:00N 35°27' E 139°39'5 9.2
2017-Aug-13 04:30N 35°30' E 139°43'2 5.0
2017-Aug-13 04:00N 35°31' E 139°46'3 6.4
2017-Aug-13 03:30N 35°29' E 139°43'2 3.1
2017-Aug-13 03:00N 35°28' E 139°44'2 4.2
2017-Aug-13 02:30N 35°27' E 139°42'1 2.6
2017-Aug-13 02:00N 35°28' E 139°41'0 0.0
2017-Aug-13 01:30N 35°28' E 139°41'0 0.0
2017-Aug-13 01:00N 35°28' E 139°41'0 0.0
2017-Aug-13 00:30N 35°28' E 139°41'1 2.1
2017-Aug-13 00:00N 35°28' E 139°39'0 0.8
2017-Aug-12 23:30N 35°28' E 139°39'0 0.0
2017-Aug-12 23:00N 35°28' E 139°39'1 2.2
2017-Aug-12 22:30N 35°27' E 139°40'0 0.0
2017-Aug-12 22:00N 35°27' E 139°40'0 0.0
2017-Aug-11 03:20N 35°27' E 139°40'0 0.6
2017-Aug-11 03:00N 35°27' E 139°39'0 0.0
2017-Aug-11 02:30N 35°27' E 139°39'4 8.1
2017-Aug-11 02:00N 35°28' E 139°44'2 5.0
2017-Aug-11 01:30N 35°29' E 139°47'0 0.0
2017-Aug-11 01:00N 35°29' E 139°47'0 0.2
2017-Aug-11 00:30N 35°29' E 139°47'0 0.8
2017-Aug-11 00:00N 35°29' E 139°47'1 1.8
2017-Aug-10 23:30N 35°28' E 139°47'3 6.2
2017-Aug-10 23:00N 35°27' E 139°44'3 6.6
2017-Aug-10 22:30N 35°27' E 139°40'0 0.0
2017-Aug-10 22:00N 35°27' E 139°40'0 0.0
2017-Aug-09 23:57N 35°27' E 139°40'1 2.9
2017-Aug-09 23:31N 35°26' E 139°41'1 1.5
2017-Aug-09 23:01N 35°27' E 139°42'2 3.9
2017-Aug-09 22:30N 35°25' E 139°44'1 1.6
2017-Aug-09 22:00N 35°26' E 139°44'1 2.5
2017-Aug-09 21:30N 35°27' E 139°43'0 0.0
2017-Aug-09 21:00N 35°27' E 139°43'0 0.0
2017-Aug-09 20:30N 35°27' E 139°43'0 0.0
2017-Aug-09 20:00N 35°27' E 139°43'0 0.0
2017-Aug-09 19:30N 35°27' E 139°43'1 2.9
2017-Aug-09 19:00N 35°26' E 139°41'0 0.1
2017-Aug-09 18:30N 35°26' E 139°41'1 2.3
2017-Aug-09 18:00N 35°27' E 139°40'0 0.0
2017-Aug-09 17:30N 35°27' E 139°40'0 0.0
2017-Aug-09 17:00N 35°27' E 139°40'0 0.0
2017-Aug-09 16:30N 35°27' E 139°40'0 0.0
2017-Aug-09 16:00N 35°27' E 139°40'0 0.0
2017-Aug-09 15:30N 35°27' E 139°40'0 0.0
2017-Aug-09 15:00N 35°27' E 139°40'0 0.0
2017-Aug-09 14:30N 35°27' E 139°40'0 0.0
2017-Aug-09 14:00N 35°27' E 139°40'0 0.0
2017-Aug-09 13:30N 35°27' E 139°40'0 0.0
2017-Aug-09 13:00N 35°27' E 139°40'0 0.0
2017-Aug-09 12:30N 35°27' E 139°40'0 0.3
2017-Aug-09 12:00N 35°27' E 139°40'1 2.4
2017-Aug-09 11:30N 35°26' E 139°41'1 2.3
2017-Aug-09 11:01N 35°26' E 139°42'1 1.2
2017-Aug-09 10:30N 35°27' E 139°42'0 0.0
2017-Aug-09 10:00N 35°27' E 139°42'0 0.0
2017-Aug-09 09:30N 35°27' E 139°42'0 0.0
2017-Aug-09 09:00N 35°27' E 139°42'3 5.9
2017-Aug-09 08:30N 35°29' E 139°39'1 1.8
2017-Aug-09 08:00N 35°28' E 139°40'2 4.3
2017-Aug-09 07:30N 35°27' E 139°42'2 4.2
2017-Aug-09 07:00N 35°27' E 139°39'0 0.0
2017-Aug-09 06:30N 35°27' E 139°39'0 0.0
2017-Aug-09 06:00N 35°27' E 139°39'0 0.0
2017-Aug-09 05:30N 35°27' E 139°39'0 0.0
2017-Aug-09 05:00N 35°27' E 139°39'0 0.0
2017-Aug-09 04:30N 35°27' E 139°39'0 0.0
2017-Aug-09 04:00N 35°27' E 139°39'0 0.0
2017-Aug-09 03:30N 35°27' E 139°39'0 0.0
2017-Aug-09 03:00N 35°27' E 139°39'0 0.0
2017-Aug-09 02:30N 35°27' E 139°39'0 0.0
2017-Aug-09 02:00N 35°27' E 139°39'3 6.4
2017-Aug-09 01:30N 35°27' E 139°43'3 7.0
2017-Aug-09 01:00N 35°29' E 139°47'0 0.1
2017-Aug-09 00:30N 35°29' E 139°47'1 1.1
2017-Aug-08 23:59N 35°28' E 139°47'1 1.6
2017-Aug-08 23:30N 35°28' E 139°47'3 5.7
2017-Aug-08 23:00N 35°26' E 139°44'3 6.9
2017-Aug-08 22:30N 35°27' E 139°40'0 0.0
2017-Aug-08 22:00N 35°27' E 139°40'0 0.0
2017-Aug-08 07:12N 35°27' E 139°40'0 0.0
2017-Aug-08 07:00N 35°27' E 139°40'0 0.0
2017-Aug-08 06:31N 35°27' E 139°40'0 0.0
2017-Aug-08 06:00N 35°27' E 139°40'0 0.0
2017-Aug-08 05:30N 35°27' E 139°40'0 0.0
2017-Aug-08 05:01N 35°27' E 139°40'0 0.0
2017-Aug-08 04:30N 35°27' E 139°40'0 0.0
2017-Aug-08 04:00N 35°27' E 139°40'0 0.0
2017-Aug-08 03:30N 35°27' E 139°40'0 0.0
2017-Aug-08 03:01N 35°27' E 139°40'0 0.0
2017-Aug-08 02:31N 35°27' E 139°40'0 0.0
2017-Aug-08 02:00N 35°27' E 139°40'0 0.0
2017-Aug-08 01:31N 35°27' E 139°40'0 0.0
2017-Aug-08 01:00N 35°27' E 139°40'0 0.0
2017-Aug-08 00:30N 35°27' E 139°40'0 0.0
2017-Aug-08 00:01N 35°27' E 139°40'0 0.0
2017-Aug-07 23:30N 35°27' E 139°40'1 2.7
2017-Aug-07 23:00N 35°28' E 139°41'2 4.7
2017-Aug-07 22:31N 35°29' E 139°43'1 1.2
2017-Aug-07 22:01N 35°29' E 139°42'2 3.7
2017-Aug-07 21:31N 35°27' E 139°43'2 5.0
2017-Aug-07 21:01N 35°27' E 139°40'0 0.9
2017-Aug-07 20:30N 35°27' E 139°40'0 0.0
2017-Aug-07 20:00N 35°27' E 139°40'0 0.0
2017-Aug-07 07:13N 35°27' E 139°40'  
Track history (hours):
 
Tides and Currents Weather Stations Pressure Air Temp Water Temp Dewpoint Dewpoint Depression Visibility Wind Speed Wind Dir Waves Ship Positions

Chitose

Last reported at 2017-Aug-17 07:11 UTC. Time now 2017-Aug-17 09:55 UTC.
Position N 35°27' E 139°40'.

Length 33 m; draft 3.8 m.

Type: Tug. MMSI: 431000953.

Date/timePositionNaut miles runAvg speedWind from/ knotsBaromVisibWave heightAir tempDewpointWater temp
2017-Aug-17 07:11N 35°27' E 139°40'0 0.0
2017-Aug-17 07:00N 35°27' E 139°40'0 0.0
2017-Aug-17 06:30N 35°27' E 139°40'0 0.0
2017-Aug-17 06:00N 35°27' E 139°40'0 0.0
2017-Aug-17 05:30N 35°27' E 139°40'0 0.0
2017-Aug-17 05:00N 35°27' E 139°40'0 0.0
2017-Aug-17 04:30N 35°27' E 139°40'0 0.0
2017-Aug-17 04:00N 35°27' E 139°40'0 0.5
2017-Aug-17 03:30N 35°27' E 139°40'1 2.7
2017-Aug-17 03:00N 35°26' E 139°41'0 0.3
2017-Aug-17 02:30N 35°26' E 139°41'1 1.9
2017-Aug-17 02:00N 35°26' E 139°42'0 0.0
2017-Aug-17 01:30N 35°26' E 139°42'0 0.0
2017-Aug-17 01:00N 35°26' E 139°42'0 0.0
2017-Aug-17 00:30N 35°26' E 139°42'0 0.1
2017-Aug-17 00:00N 35°26' E 139°42'0 0.1
2017-Aug-16 23:30N 35°26' E 139°42'0 0.0
2017-Aug-16 23:00N 35°26' E 139°42'0 0.7
2017-Aug-16 22:30N 35°26' E 139°41'1 1.0
2017-Aug-16 22:00N 35°25' E 139°42'0 0.5
2017-Aug-16 21:31N 35°26' E 139°42'2 4.5
2017-Aug-16 21:00N 35°27' E 139°40'0 0.0
2017-Aug-16 20:30N 35°27' E 139°40'0 0.0
2017-Aug-16 07:53N 35°27' E 139°40'0 0.0
2017-Aug-16 07:30N 35°27' E 139°40'1 2.7
2017-Aug-16 07:00N 35°27' E 139°41'3 6.2
2017-Aug-16 06:31N 35°24' E 139°40'0 0.5
2017-Aug-16 06:00N 35°24' E 139°41'1 1.6
2017-Aug-16 05:30N 35°24' E 139°40'0 0.0
2017-Aug-16 05:00N 35°24' E 139°40'0 0.0
2017-Aug-16 04:30N 35°24' E 139°40'0 0.0
2017-Aug-16 04:00N 35°24' E 139°40'0 0.3
2017-Aug-16 03:30N 35°24' E 139°40'1 2.6
2017-Aug-16 03:00N 35°24' E 139°38'0 0.1
2017-Aug-16 02:30N 35°24' E 139°38'0 1.0
2017-Aug-16 02:00N 35°24' E 139°39'3 6.4
2017-Aug-16 01:30N 35°22' E 139°42'0 1.0
2017-Aug-16 01:00N 35°22' E 139°41'4 8.6
2017-Aug-16 00:30N 35°27' E 139°41'1 2.7
2017-Aug-16 00:00N 35°27' E 139°40'0 0.0
2017-Aug-15 23:30N 35°27' E 139°40'0 0.0
2017-Aug-15 23:00N 35°27' E 139°40'0 0.0
2017-Aug-15 22:30N 35°27' E 139°40'0 0.0
2017-Aug-14 23:47N 35°27' E 139°40'0 0.0
2017-Aug-14 23:30N 35°27' E 139°40'4 8.0
2017-Aug-14 23:00N 35°28' E 139°44'2 4.7
2017-Aug-14 22:30N 35°29' E 139°47'0 0.0
2017-Aug-14 22:00N 35°29' E 139°47'2 4.4
2017-Aug-14 21:30N 35°28' E 139°44'3 5.0
2017-Aug-14 21:00N 35°28' E 139°41'0 0.1
2017-Aug-14 20:30N 35°28' E 139°41'1 1.7
2017-Aug-14 20:00N 35°28' E 139°41'1 1.1
2017-Aug-14 19:30N 35°28' E 139°41'0 0.0
2017-Aug-14 19:00N 35°28' E 139°41'0 0.0
2017-Aug-14 18:30N 35°28' E 139°41'0 0.0
2017-Aug-14 18:00N 35°28' E 139°41'0 0.0
2017-Aug-14 17:30N 35°28' E 139°41'0 0.0
2017-Aug-14 17:00N 35°28' E 139°41'0 0.0
2017-Aug-14 16:30N 35°28' E 139°41'0 0.0
2017-Aug-14 16:00N 35°28' E 139°41'0 0.0
2017-Aug-14 15:30N 35°28' E 139°41'0 0.0
2017-Aug-14 15:00N 35°28' E 139°41'0 0.0
2017-Aug-14 14:30N 35°28' E 139°41'0 0.0
2017-Aug-14 14:00N 35°28' E 139°41'1 2.7
2017-Aug-14 13:30N 35°26' E 139°41'1 1.0
2017-Aug-14 13:00N 35°27' E 139°41'1 1.6
2017-Aug-14 12:30N 35°27' E 139°42'0 0.5
2017-Aug-14 12:00N 35°27' E 139°42'0 0.0
2017-Aug-14 11:30N 35°27' E 139°42'0 0.0
2017-Aug-14 11:00N 35°27' E 139°42'1 2.8
2017-Aug-14 10:30N 35°26' E 139°40'1 2.3
2017-Aug-14 10:00N 35°28' E 139°40'1 1.9
2017-Aug-14 09:30N 35°27' E 139°41'0 0.8
2017-Aug-14 09:01N 35°26' E 139°41'2 3.1
2017-Aug-14 08:30N 35°26' E 139°43'1 2.8
2017-Aug-14 08:00N 35°27' E 139°41'1 2.9
2017-Aug-14 07:30N 35°27' E 139°40'0 0.0
2017-Aug-14 07:00N 35°27' E 139°40'0 0.0
2017-Aug-14 06:30N 35°27' E 139°40'0 0.0
2017-Aug-14 06:00N 35°27' E 139°40'0 0.0
2017-Aug-14 05:30N 35°27' E 139°40'0 0.0
2017-Aug-14 05:00N 35°27' E 139°40'0 0.0
2017-Aug-14 04:31N 35°27' E 139°40'0 0.0
2017-Aug-14 04:00N 35°27' E 139°40'0 0.0
2017-Aug-14 03:30N 35°27' E 139°40'0 0.0
2017-Aug-14 03:00N 35°27' E 139°40'0 0.0
2017-Aug-14 02:30N 35°27' E 139°40'0 0.0
2017-Aug-14 02:00N 35°27' E 139°40'0 0.0
2017-Aug-14 01:30N 35°27' E 139°40'0 0.0
2017-Aug-14 01:00N 35°27' E 139°40'0 0.0
2017-Aug-14 00:30N 35°27' E 139°40'0 0.0
2017-Aug-14 00:00N 35°27' E 139°40'0 0.0
2017-Aug-13 23:30N 35°27' E 139°40'0 0.0
2017-Aug-13 23:00N 35°27' E 139°40'0 0.0
2017-Aug-13 22:30N 35°27' E 139°40'0 0.0
2017-Aug-13 05:11N 35°27' E 139°40'1 3.1
2017-Aug-13 05:00N 35°27' E 139°39'5 9.2
2017-Aug-13 04:30N 35°30' E 139°43'2 5.0
2017-Aug-13 04:00N 35°31' E 139°46'3 6.4
2017-Aug-13 03:30N 35°29' E 139°43'2 3.1
2017-Aug-13 03:00N 35°28' E 139°44'2 4.2
2017-Aug-13 02:30N 35°27' E 139°42'1 2.6
2017-Aug-13 02:00N 35°28' E 139°41'0 0.0
2017-Aug-13 01:30N 35°28' E 139°41'0 0.0
2017-Aug-13 01:00N 35°28' E 139°41'0 0.0
2017-Aug-13 00:30N 35°28' E 139°41'1 2.1
2017-Aug-13 00:00N 35°28' E 139°39'0 0.8
2017-Aug-12 23:30N 35°28' E 139°39'0 0.0
2017-Aug-12 23:00N 35°28' E 139°39'1 2.2
2017-Aug-12 22:30N 35°27' E 139°40'0 0.0
2017-Aug-12 22:00N 35°27' E 139°40'0 0.0
2017-Aug-11 03:20N 35°27' E 139°40'0 0.6
2017-Aug-11 03:00N 35°27' E 139°39'0 0.0
2017-Aug-11 02:30N 35°27' E 139°39'4 8.1
2017-Aug-11 02:00N 35°28' E 139°44'2 5.0
2017-Aug-11 01:30N 35°29' E 139°47'0 0.0
2017-Aug-11 01:00N 35°29' E 139°47'0 0.2
2017-Aug-11 00:30N 35°29' E 139°47'0 0.8
2017-Aug-11 00:00N 35°29' E 139°47'1 1.8
2017-Aug-10 23:30N 35°28' E 139°47'3 6.2
2017-Aug-10 23:00N 35°27' E 139°44'3 6.6
2017-Aug-10 22:30N 35°27' E 139°40'0 0.0
2017-Aug-10 22:00N 35°27' E 139°40'0 0.0
2017-Aug-09 23:57N 35°27' E 139°40'1 2.9
2017-Aug-09 23:31N 35°26' E 139°41'1 1.5
2017-Aug-09 23:01N 35°27' E 139°42'2 3.9
2017-Aug-09 22:30N 35°25' E 139°44'1 1.6
2017-Aug-09 22:00N 35°26' E 139°44'1 2.5
2017-Aug-09 21:30N 35°27' E 139°43'0 0.0
2017-Aug-09 21:00N 35°27' E 139°43'0 0.0
2017-Aug-09 20:30N 35°27' E 139°43'0 0.0
2017-Aug-09 20:00N 35°27' E 139°43'0 0.0
2017-Aug-09 19:30N 35°27' E 139°43'1 2.9
2017-Aug-09 19:00N 35°26' E 139°41'0 0.1
2017-Aug-09 18:30N 35°26' E 139°41'1 2.3
2017-Aug-09 18:00N 35°27' E 139°40'0 0.0
2017-Aug-09 17:30N 35°27' E 139°40'0 0.0
2017-Aug-09 17:00N 35°27' E 139°40'0 0.0
2017-Aug-09 16:30N 35°27' E 139°40'0 0.0
2017-Aug-09 16:00N 35°27' E 139°40'0 0.0
2017-Aug-09 15:30N 35°27' E 139°40'0 0.0
2017-Aug-09 15:00N 35°27' E 139°40'0 0.0
2017-Aug-09 14:30N 35°27' E 139°40'0 0.0
2017-Aug-09 14:00N 35°27' E 139°40'0 0.0
2017-Aug-09 13:30N 35°27' E 139°40'0 0.0
2017-Aug-09 13:00N 35°27' E 139°40'0 0.0
2017-Aug-09 12:30N 35°27' E 139°40'0 0.3
2017-Aug-09 12:00N 35°27' E 139°40'1 2.4
2017-Aug-09 11:30N 35°26' E 139°41'1 2.3
2017-Aug-09 11:01N 35°26' E 139°42'1 1.2
2017-Aug-09 10:30N 35°27' E 139°42'0 0.0
2017-Aug-09 10:00N 35°27' E 139°42'0 0.0
2017-Aug-09 09:30N 35°27' E 139°42'0 0.0
2017-Aug-09 09:00N 35°27' E 139°42'3 5.9
2017-Aug-09 08:30N 35°29' E 139°39'1 1.8
2017-Aug-09 08:00N 35°28' E 139°40'2 4.3
2017-Aug-09 07:30N 35°27' E 139°42'2 4.2
2017-Aug-09 07:00N 35°27' E 139°39'0 0.0
2017-Aug-09 06:30N 35°27' E 139°39'0 0.0
2017-Aug-09 06:00N 35°27' E 139°39'0 0.0
2017-Aug-09 05:30N 35°27' E 139°39'0 0.0
2017-Aug-09 05:00N 35°27' E 139°39'0 0.0
2017-Aug-09 04:30N 35°27' E 139°39'0 0.0
2017-Aug-09 04:00N 35°27' E 139°39'0 0.0
2017-Aug-09 03:30N 35°27' E 139°39'0 0.0
2017-Aug-09 03:00N 35°27' E 139°39'0 0.0
2017-Aug-09 02:30N 35°27' E 139°39'0 0.0
2017-Aug-09 02:00N 35°27' E 139°39'3 6.4
2017-Aug-09 01:30N 35°27' E 139°43'3 7.0
2017-Aug-09 01:00N 35°29' E 139°47'0 0.1
2017-Aug-09 00:30N 35°29' E 139°47'1 1.1
2017-Aug-08 23:59N 35°28' E 139°47'1 1.6
2017-Aug-08 23:30N 35°28' E 139°47'3 5.7
2017-Aug-08 23:00N 35°26' E 139°44'3 6.9
2017-Aug-08 22:30N 35°27' E 139°40'0 0.0
2017-Aug-08 22:00N 35°27' E 139°40'0 0.0
2017-Aug-08 07:12N 35°27' E 139°40'0 0.0
2017-Aug-08 07:00N 35°27' E 139°40'0 0.0
2017-Aug-08 06:31N 35°27' E 139°40'0 0.0
2017-Aug-08 06:00N 35°27' E 139°40'0 0.0
2017-Aug-08 05:30N 35°27' E 139°40'0 0.0
2017-Aug-08 05:01N 35°27' E 139°40'0 0.0
2017-Aug-08 04:30N 35°27' E 139°40'0 0.0
2017-Aug-08 04:00N 35°27' E 139°40'0 0.0
2017-Aug-08 03:30N 35°27' E 139°40'0 0.0
2017-Aug-08 03:01N 35°27' E 139°40'0 0.0
2017-Aug-08 02:31N 35°27' E 139°40'0 0.0
2017-Aug-08 02:00N 35°27' E 139°40'0 0.0
2017-Aug-08 01:31N 35°27' E 139°40'0 0.0
2017-Aug-08 01:00N 35°27' E 139°40'0 0.0
2017-Aug-08 00:30N 35°27' E 139°40'0 0.0
2017-Aug-08 00:01N 35°27' E 139°40'0 0.0
2017-Aug-07 23:30N 35°27' E 139°40'1 2.7
2017-Aug-07 23:00N 35°28' E 139°41'2 4.7
2017-Aug-07 22:31N 35°29' E 139°43'1 1.2
2017-Aug-07 22:01N 35°29' E 139°42'2 3.7
2017-Aug-07 21:31N 35°27' E 139°43'2 5.0
2017-Aug-07 21:01N 35°27' E 139°40'0 0.9
2017-Aug-07 20:30N 35°27' E 139°40'0 0.0
2017-Aug-07 20:00N 35°27' E 139°40'0 0.0
2017-Aug-07 07:13N 35°27' E 139°40'  

Dump ship's entire track history